LIPQ

Trieste–Friuli Venezia Giulia Airport

Trieste, Italy
TAF LIPQ 171700Z 1718/1818 08015KT CAVOK BECMG 1816/1818 VRB05KT
Issued Valid From Valid To
Nov-17 @ 17:00 UTC
(5 hours ago)
Nov-17 @ 18:00 UTC
(4 hours ago)
Nov-18 @ 18:00 UTC
(in 20 hours)
Nov-17 @ 18:00 to Nov-18 @ 16:00
TAF LIPQ 171700Z 1718/1818 08015KT CAVOK
Wind Visibility Clouds Conditions
80° at 15 knots 10,000+ meters
  • No significant clouds
Becoming Nov-18 @ 16:00 to Nov-18 @ 18:00
BECMG 1816/1818 VRB05KT
Wind Visibility Clouds Conditions
Variable at 5 knots 10,000+ meters
  • No significant clouds
TAF LIPQ 171700Z 1718/1818 08015KT CAVOK BECMG 1816/1818 VRB05KT
Issued Nov-17 @ 17:00 UTC
(5 hours ago)
Valid From Nov-17 @ 18:00 UTC
(4 hours ago)
Valid To Nov-18 @ 18:00 UTC
(in 20 hours)
Nov-17 @ 18:00 - Nov-18 @ 16:00
Wind Visibility
80° at 15 knots 10,000+ meters
Clouds
  • No significant clouds
Conditions
Becoming Nov-18 @ 16:00 - Nov-18 @ 18:00
Wind Visibility
Variable at 5 knots 10,000+ meters
Clouds
  • No significant clouds
Conditions